sensor_id;sensor_type;location;lat;lon;timestamp;P1;durP1;ratioP1;P2;durP2;ratioP2
703;SDS011;335;48.694;9.120;2023-02-18T00:01:48;0.70;;;0.70;;
703;SDS011;335;48.694;9.120;2023-02-18T00:04:13;0.93;;;0.80;;
703;SDS011;335;48.694;9.120;2023-02-18T00:06:38;0.70;;;0.70;;
703;SDS011;335;48.694;9.120;2023-02-18T00:09:04;0.60;;;0.60;;
703;SDS011;335;48.694;9.120;2023-02-18T00:11:30;0.93;;;0.80;;
703;SDS011;335;48.694;9.120;2023-02-18T00:13:59;2.33;;;0.77;;
703;SDS011;335;48.694;9.120;2023-02-18T00:16:26;0.77;;;0.77;;
703;SDS011;335;48.694;9.120;2023-02-18T00:18:59;0.83;;;0.83;;
703;SDS011;335;48.694;9.120;2023-02-18T00:21:26;0.80;;;0.80;;
703;SDS011;335;48.694;9.120;2023-02-18T00:23:52;1.23;;;0.70;;
703;SDS011;335;48.694;9.120;2023-02-18T00:26:17;0.60;;;0.60;;
703;SDS011;335;48.694;9.120;2023-02-18T00:28:44;0.90;;;0.90;;
703;SDS011;335;48.694;9.120;2023-02-18T00:31:11;1.03;;;1.03;;
703;SDS011;335;48.694;9.120;2023-02-18T00:33:39;1.00;;;1.00;;
703;SDS011;335;48.694;9.120;2023-02-18T00:36:05;1.00;;;0.63;;
703;SDS011;335;48.694;9.120;2023-02-18T00:38:33;0.97;;;0.97;;
703;SDS011;335;48.694;9.120;2023-02-18T00:40:58;1.10;;;1.00;;
703;SDS011;335;48.694;9.120;2023-02-18T00:43:24;0.87;;;0.87;;
703;SDS011;335;48.694;9.120;2023-02-18T00:45:49;0.70;;;0.70;;
703;SDS011;335;48.694;9.120;2023-02-18T00:48:14;0.80;;;0.80;;
703;SDS011;335;48.694;9.120;2023-02-18T00:50:40;0.70;;;0.70;;
703;SDS011;335;48.694;9.120;2023-02-18T00:53:05;1.23;;;0.90;;
703;SDS011;335;48.694;9.120;2023-02-18T00:55:30;1.03;;;0.83;;
703;SDS011;335;48.694;9.120;2023-02-18T00:57:56;0.60;;;0.60;;
703;SDS011;335;48.694;9.120;2023-02-18T01:00:21;1.70;;;0.80;;
703;SDS011;335;48.694;9.120;2023-02-18T01:02:46;1.20;;;1.20;;
703;SDS011;335;48.694;9.120;2023-02-18T01:05:12;0.80;;;0.80;;
703;SDS011;335;48.694;9.120;2023-02-18T01:07:37;1.00;;;0.87;;
703;SDS011;335;48.694;9.120;2023-02-18T01:10:03;1.10;;;1.10;;
703;SDS011;335;48.694;9.120;2023-02-18T01:12:28;1.00;;;1.00;;
703;SDS011;335;48.694;9.120;2023-02-18T01:14:54;0.93;;;0.93;;
703;SDS011;335;48.694;9.120;2023-02-18T01:17:19;0.90;;;0.90;;
703;SDS011;335;48.694;9.120;2023-02-18T01:19:44;1.33;;;1.23;;
703;SDS011;335;48.694;9.120;2023-02-18T01:22:10;1.27;;;1.07;;
703;SDS011;335;48.694;9.120;2023-02-18T01:24:35;1.83;;;1.20;;
703;SDS011;335;48.694;9.120;2023-02-18T01:27:02;0.90;;;0.90;;
703;SDS011;335;48.694;9.120;2023-02-18T01:29:27;1.93;;;1.27;;
703;SDS011;335;48.694;9.120;2023-02-18T01:31:53;0.90;;;0.90;;
703;SDS011;335;48.694;9.120;2023-02-18T01:34:18;1.10;;;1.10;;
703;SDS011;335;48.694;9.120;2023-02-18T01:36:43;1.27;;;1.27;;
703;SDS011;335;48.694;9.120;2023-02-18T01:39:09;1.80;;;1.70;;
703;SDS011;335;48.694;9.120;2023-02-18T01:41:34;1.30;;;1.20;;
703;SDS011;335;48.694;9.120;2023-02-18T01:44:19;1.53;;;0.90;;
703;SDS011;335;48.694;9.120;2023-02-18T01:46:46;1.20;;;1.17;;
703;SDS011;335;48.694;9.120;2023-02-18T01:49:12;0.90;;;0.90;;
703;SDS011;335;48.694;9.120;2023-02-18T01:52:04;1.30;;;1.30;;
703;SDS011;335;48.694;9.120;2023-02-18T01:54:33;1.13;;;1.13;;
703;SDS011;335;48.694;9.120;2023-02-18T01:57:05;1.13;;;1.13;;
703;SDS011;335;48.694;9.120;2023-02-18T01:59:33;1.37;;;0.70;;
703;SDS011;335;48.694;9.120;2023-02-18T02:02:03;1.00;;;1.00;;
703;SDS011;335;48.694;9.120;2023-02-18T02:04:31;1.27;;;1.17;;
703;SDS011;335;48.694;9.120;2023-02-18T02:06:56;1.43;;;1.20;;
703;SDS011;335;48.694;9.120;2023-02-18T02:09:22;1.43;;;1.10;;
703;SDS011;335;48.694;9.120;2023-02-18T02:14:40;1.53;;;1.43;;
703;SDS011;335;48.694;9.120;2023-02-18T02:22:55;1.70;;;1.60;;
703;SDS011;335;48.694;9.120;2023-02-18T02:28:26;1.23;;;1.23;;
703;SDS011;335;48.694;9.120;2023-02-18T02:33:49;1.90;;;1.80;;
703;SDS011;335;48.694;9.120;2023-02-18T02:36:23;1.70;;;1.60;;
703;SDS011;335;48.694;9.120;2023-02-18T02:41:44;1.43;;;1.43;;
703;SDS011;335;48.694;9.120;2023-02-18T02:44:19;1.43;;;1.30;;
703;SDS011;335;48.694;9.120;2023-02-18T02:46:46;1.53;;;1.43;;
703;SDS011;335;48.694;9.120;2023-02-18T02:49:23;1.73;;;1.63;;
703;SDS011;335;48.694;9.120;2023-02-18T02:51:59;1.20;;;1.10;;
703;SDS011;335;48.694;9.120;2023-02-18T02:54:38;1.20;;;1.20;;
703;SDS011;335;48.694;9.120;2023-02-18T02:57:08;1.20;;;1.20;;
703;SDS011;335;48.694;9.120;2023-02-18T02:59:55;1.20;;;1.20;;
703;SDS011;335;48.694;9.120;2023-02-18T03:13:32;1.43;;;1.33;;
703;SDS011;335;48.694;9.120;2023-02-18T03:16:27;1.70;;;1.30;;
703;SDS011;335;48.694;9.120;2023-02-18T03:19:09;1.30;;;1.30;;
703;SDS011;335;48.694;9.120;2023-02-18T03:21:59;1.63;;;1.53;;
703;SDS011;335;48.694;9.120;2023-02-18T03:24:37;2.93;;;1.60;;
703;SDS011;335;48.694;9.120;2023-02-18T03:27:05;1.20;;;1.20;;
703;SDS011;335;48.694;9.120;2023-02-18T03:29:39;1.10;;;1.10;;
703;SDS011;335;48.694;9.120;2023-02-18T03:32:06;1.10;;;1.10;;
703;SDS011;335;48.694;9.120;2023-02-18T03:34:34;1.60;;;1.30;;
703;SDS011;335;48.694;9.120;2023-02-18T03:37:02;2.60;;;1.60;;
703;SDS011;335;48.694;9.120;2023-02-18T03:39:29;1.63;;;1.00;;
703;SDS011;335;48.694;9.120;2023-02-18T03:41:55;1.73;;;1.63;;
703;SDS011;335;48.694;9.120;2023-02-18T03:44:22;1.50;;;1.40;;
703;SDS011;335;48.694;9.120;2023-02-18T03:46:48;1.50;;;1.40;;
703;SDS011;335;48.694;9.120;2023-02-18T03:49:14;1.80;;;1.70;;
703;SDS011;335;48.694;9.120;2023-02-18T03:51:39;1.73;;;1.17;;
703;SDS011;335;48.694;9.120;2023-02-18T03:54:05;1.60;;;1.50;;
703;SDS011;335;48.694;9.120;2023-02-18T03:56:30;1.70;;;1.60;;
703;SDS011;335;48.694;9.120;2023-02-18T03:58:56;1.50;;;1.40;;
703;SDS011;335;48.694;9.120;2023-02-18T04:01:21;1.50;;;1.43;;
703;SDS011;335;48.694;9.120;2023-02-18T04:03:46;1.57;;;1.50;;
703;SDS011;335;48.694;9.120;2023-02-18T04:06:12;1.20;;;1.20;;
703;SDS011;335;48.694;9.120;2023-02-18T04:08:37;1.60;;;1.23;;
703;SDS011;335;48.694;9.120;2023-02-18T04:11:03;1.20;;;1.20;;
703;SDS011;335;48.694;9.120;2023-02-18T04:13:29;1.33;;;1.23;;
703;SDS011;335;48.694;9.120;2023-02-18T04:15:54;1.77;;;1.67;;
703;SDS011;335;48.694;9.120;2023-02-18T04:18:20;1.40;;;1.30;;
703;SDS011;335;48.694;9.120;2023-02-18T04:20:46;1.60;;;1.47;;
703;SDS011;335;48.694;9.120;2023-02-18T04:23:11;2.20;;;1.50;;
703;SDS011;335;48.694;9.120;2023-02-18T04:25:37;1.63;;;1.53;;
703;SDS011;335;48.694;9.120;2023-02-18T04:28:02;1.23;;;1.23;;
703;SDS011;335;48.694;9.120;2023-02-18T04:30:28;1.70;;;1.60;;
703;SDS011;335;48.694;9.120;2023-02-18T04:32:53;1.37;;;1.27;;
703;SDS011;335;48.694;9.120;2023-02-18T04:35:18;1.60;;;1.50;;
703;SDS011;335;48.694;9.120;2023-02-18T04:37:44;1.43;;;1.43;;
703;SDS011;335;48.694;9.120;2023-02-18T04:40:09;1.90;;;1.80;;
703;SDS011;335;48.694;9.120;2023-02-18T04:42:35;1.27;;;1.27;;
703;SDS011;335;48.694;9.120;2023-02-18T04:45:01;1.40;;;1.30;;
703;SDS011;335;48.694;9.120;2023-02-18T04:47:26;1.60;;;1.50;;
703;SDS011;335;48.694;9.120;2023-02-18T04:49:52;1.27;;;1.20;;
703;SDS011;335;48.694;9.120;2023-02-18T04:52:17;1.27;;;1.20;;
703;SDS011;335;48.694;9.120;2023-02-18T04:54:42;2.73;;;1.20;;
703;SDS011;335;48.694;9.120;2023-02-18T04:57:08;2.00;;;1.90;;
703;SDS011;335;48.694;9.120;2023-02-18T04:59:33;1.50;;;1.40;;
703;SDS011;335;48.694;9.120;2023-02-18T05:01:58;1.63;;;1.53;;
703;SDS011;335;48.694;9.120;2023-02-18T05:04:24;1.70;;;1.30;;
703;SDS011;335;48.694;9.120;2023-02-18T05:06:49;1.00;;;1.00;;
703;SDS011;335;48.694;9.120;2023-02-18T05:09:14;1.37;;;1.37;;
703;SDS011;335;48.694;9.120;2023-02-18T05:11:40;1.20;;;1.20;;
703;SDS011;335;48.694;9.120;2023-02-18T05:14:06;1.50;;;1.40;;
703;SDS011;335;48.694;9.120;2023-02-18T05:16:31;1.87;;;1.27;;
703;SDS011;335;48.694;9.120;2023-02-18T05:18:56;1.77;;;1.30;;
703;SDS011;335;48.694;9.120;2023-02-18T05:21:22;1.30;;;1.30;;
703;SDS011;335;48.694;9.120;2023-02-18T05:23:47;1.40;;;1.40;;
703;SDS011;335;48.694;9.120;2023-02-18T05:26:12;1.10;;;1.10;;
703;SDS011;335;48.694;9.120;2023-02-18T05:28:38;1.27;;;1.27;;
703;SDS011;335;48.694;9.120;2023-02-18T05:31:03;1.30;;;1.30;;
703;SDS011;335;48.694;9.120;2023-02-18T05:33:29;1.77;;;1.40;;
703;SDS011;335;48.694;9.120;2023-02-18T05:35:54;1.87;;;1.77;;
703;SDS011;335;48.694;9.120;2023-02-18T05:38:19;1.40;;;1.30;;
703;SDS011;335;48.694;9.120;2023-02-18T05:40:45;1.33;;;1.23;;
703;SDS011;335;48.694;9.120;2023-02-18T05:43:10;1.73;;;1.63;;
703;SDS011;335;48.694;9.120;2023-02-18T05:45:35;1.40;;;1.40;;
703;SDS011;335;48.694;9.120;2023-02-18T05:48:01;1.10;;;1.10;;
703;SDS011;335;48.694;9.120;2023-02-18T05:50:26;1.43;;;1.17;;
703;SDS011;335;48.694;9.120;2023-02-18T05:52:52;1.10;;;1.10;;
703;SDS011;335;48.694;9.120;2023-02-18T05:55:17;1.13;;;1.13;;
703;SDS011;335;48.694;9.120;2023-02-18T05:57:43;1.43;;;0.93;;
703;SDS011;335;48.694;9.120;2023-02-18T06:00:08;1.73;;;1.63;;
703;SDS011;335;48.694;9.120;2023-02-18T06:02:34;1.30;;;1.27;;
703;SDS011;335;48.694;9.120;2023-02-18T06:05:00;1.73;;;1.63;;
703;SDS011;335;48.694;9.120;2023-02-18T06:07:26;1.40;;;1.30;;
703;SDS011;335;48.694;9.120;2023-02-18T06:09:51;1.00;;;1.00;;
703;SDS011;335;48.694;9.120;2023-02-18T06:12:17;1.10;;;1.10;;
703;SDS011;335;48.694;9.120;2023-02-18T06:14:43;1.20;;;1.20;;
703;SDS011;335;48.694;9.120;2023-02-18T06:17:08;1.10;;;1.10;;
703;SDS011;335;48.694;9.120;2023-02-18T06:19:36;1.30;;;1.30;;
703;SDS011;335;48.694;9.120;2023-02-18T06:22:01;1.77;;;1.67;;
703;SDS011;335;48.694;9.120;2023-02-18T06:24:26;1.13;;;1.03;;
703;SDS011;335;48.694;9.120;2023-02-18T06:26:52;1.77;;;1.67;;
703;SDS011;335;48.694;9.120;2023-02-18T06:29:17;1.97;;;1.87;;
703;SDS011;335;48.694;9.120;2023-02-18T06:31:42;2.00;;;1.90;;
703;SDS011;335;48.694;9.120;2023-02-18T06:34:08;1.90;;;1.80;;
703;SDS011;335;48.694;9.120;2023-02-18T06:36:33;2.00;;;1.87;;
703;SDS011;335;48.694;9.120;2023-02-18T06:38:58;1.70;;;1.60;;
703;SDS011;335;48.694;9.120;2023-02-18T06:41:26;1.73;;;1.67;;
703;SDS011;335;48.694;9.120;2023-02-18T06:43:51;1.80;;;1.70;;
703;SDS011;335;48.694;9.120;2023-02-18T06:46:16;1.90;;;1.70;;
703;SDS011;335;48.694;9.120;2023-02-18T06:48:41;1.67;;;1.57;;
703;SDS011;335;48.694;9.120;2023-02-18T06:51:07;1.93;;;1.83;;
703;SDS011;335;48.694;9.120;2023-02-18T06:53:32;1.70;;;1.60;;
703;SDS011;335;48.694;9.120;2023-02-18T06:55:58;1.60;;;1.50;;
703;SDS011;335;48.694;9.120;2023-02-18T06:58:23;1.57;;;1.47;;
703;SDS011;335;48.694;9.120;2023-02-18T07:00:49;1.33;;;1.30;;
703;SDS011;335;48.694;9.120;2023-02-18T07:03:14;1.43;;;1.43;;
703;SDS011;335;48.694;9.120;2023-02-18T07:05:40;1.20;;;1.20;;
703;SDS011;335;48.694;9.120;2023-02-18T07:08:06;1.70;;;1.60;;
703;SDS011;335;48.694;9.120;2023-02-18T07:10:31;1.10;;;1.10;;
703;SDS011;335;48.694;9.120;2023-02-18T07:12:56;2.00;;;1.90;;
703;SDS011;335;48.694;9.120;2023-02-18T07:15:22;1.37;;;1.37;;
703;SDS011;335;48.694;9.120;2023-02-18T07:17:49;1.67;;;1.60;;
703;SDS011;335;48.694;9.120;2023-02-18T07:20:15;1.80;;;1.70;;
703;SDS011;335;48.694;9.120;2023-02-18T07:22:40;1.80;;;1.70;;
703;SDS011;335;48.694;9.120;2023-02-18T07:25:06;1.43;;;1.43;;
703;SDS011;335;48.694;9.120;2023-02-18T07:27:31;1.57;;;1.47;;
703;SDS011;335;48.694;9.120;2023-02-18T07:29:56;1.73;;;1.63;;
703;SDS011;335;48.694;9.120;2023-02-18T07:32:22;2.00;;;1.90;;
703;SDS011;335;48.694;9.120;2023-02-18T07:34:47;1.30;;;1.10;;
703;SDS011;335;48.694;9.120;2023-02-18T07:37:13;1.30;;;1.30;;
703;SDS011;335;48.694;9.120;2023-02-18T07:39:41;1.83;;;1.73;;
703;SDS011;335;48.694;9.120;2023-02-18T07:42:07;3.20;;;1.80;;
703;SDS011;335;48.694;9.120;2023-02-18T07:44:34;1.30;;;1.30;;
703;SDS011;335;48.694;9.120;2023-02-18T07:47:00;2.07;;;1.87;;
703;SDS011;335;48.694;9.120;2023-02-18T07:49:26;1.70;;;1.63;;
703;SDS011;335;48.694;9.120;2023-02-18T07:51:51;1.50;;;1.40;;
703;SDS011;335;48.694;9.120;2023-02-18T07:54:16;1.50;;;1.40;;
703;SDS011;335;48.694;9.120;2023-02-18T07:56:42;1.97;;;1.87;;
703;SDS011;335;48.694;9.120;2023-02-18T07:59:08;2.13;;;1.90;;
703;SDS011;335;48.694;9.120;2023-02-18T08:01:33;1.57;;;1.47;;
703;SDS011;335;48.694;9.120;2023-02-18T08:03:59;1.57;;;1.47;;
703;SDS011;335;48.694;9.120;2023-02-18T08:06:25;2.00;;;1.90;;
703;SDS011;335;48.694;9.120;2023-02-18T08:08:53;1.70;;;1.57;;
703;SDS011;335;48.694;9.120;2023-02-18T08:11:18;3.03;;;1.80;;
703;SDS011;335;48.694;9.120;2023-02-18T08:13:43;1.50;;;1.40;;
703;SDS011;335;48.694;9.120;2023-02-18T08:16:09;1.10;;;1.10;;
703;SDS011;335;48.694;9.120;2023-02-18T08:18:34;1.40;;;1.40;;
703;SDS011;335;48.694;9.120;2023-02-18T08:20:59;1.43;;;1.33;;
703;SDS011;335;48.694;9.120;2023-02-18T08:23:25;1.43;;;1.33;;
703;SDS011;335;48.694;9.120;2023-02-18T08:25:50;1.40;;;1.30;;
703;SDS011;335;48.694;9.120;2023-02-18T08:28:17;1.63;;;1.63;;
703;SDS011;335;48.694;9.120;2023-02-18T08:30:43;1.70;;;1.60;;
703;SDS011;335;48.694;9.120;2023-02-18T08:33:12;1.60;;;1.50;;
703;SDS011;335;48.694;9.120;2023-02-18T08:35:38;1.70;;;1.60;;
703;SDS011;335;48.694;9.120;2023-02-18T08:38:03;2.33;;;1.83;;
703;SDS011;335;48.694;9.120;2023-02-18T08:40:29;1.80;;;1.70;;
703;SDS011;335;48.694;9.120;2023-02-18T08:42:54;1.60;;;1.37;;
703;SDS011;335;48.694;9.120;2023-02-18T08:45:19;1.03;;;1.03;;
703;SDS011;335;48.694;9.120;2023-02-18T08:47:45;1.53;;;1.20;;
703;SDS011;335;48.694;9.120;2023-02-18T08:50:10;1.17;;;1.17;;
703;SDS011;335;48.694;9.120;2023-02-18T08:52:35;1.37;;;1.30;;
703;SDS011;335;48.694;9.120;2023-02-18T08:55:01;1.10;;;1.10;;
703;SDS011;335;48.694;9.120;2023-02-18T08:57:27;1.33;;;1.33;;
703;SDS011;335;48.694;9.120;2023-02-18T08:59:52;1.03;;;1.03;;
703;SDS011;335;48.694;9.120;2023-02-18T09:02:18;1.30;;;1.20;;
703;SDS011;335;48.694;9.120;2023-02-18T09:04:43;1.43;;;1.20;;
703;SDS011;335;48.694;9.120;2023-02-18T09:07:08;1.40;;;1.40;;
703;SDS011;335;48.694;9.120;2023-02-18T09:09:34;1.17;;;1.17;;
703;SDS011;335;48.694;9.120;2023-02-18T09:11:59;1.33;;;1.33;;
703;SDS011;335;48.694;9.120;2023-02-18T09:14:25;1.10;;;1.10;;
703;SDS011;335;48.694;9.120;2023-02-18T09:16:50;1.30;;;1.20;;
703;SDS011;335;48.694;9.120;2023-02-18T09:19:16;1.83;;;1.00;;
703;SDS011;335;48.694;9.120;2023-02-18T09:21:42;1.20;;;1.20;;
703;SDS011;335;48.694;9.120;2023-02-18T09:24:07;0.90;;;0.90;;
703;SDS011;335;48.694;9.120;2023-02-18T09:26:33;0.80;;;0.80;;
703;SDS011;335;48.694;9.120;2023-02-18T09:28:59;1.13;;;1.13;;
703;SDS011;335;48.694;9.120;2023-02-18T09:31:25;0.77;;;0.77;;
703;SDS011;335;48.694;9.120;2023-02-18T09:33:52;3.53;;;1.00;;
703;SDS011;335;48.694;9.120;2023-02-18T09:36:22;1.00;;;1.00;;
703;SDS011;335;48.694;9.120;2023-02-18T09:38:48;1.50;;;1.40;;
703;SDS011;335;48.694;9.120;2023-02-18T09:41:19;1.10;;;1.03;;
703;SDS011;335;48.694;9.120;2023-02-18T09:43:52;1.10;;;0.97;;
703;SDS011;335;48.694;9.120;2023-02-18T09:46:21;1.83;;;1.40;;
703;SDS011;335;48.694;9.120;2023-02-18T09:48:48;1.90;;;1.10;;
703;SDS011;335;48.694;9.120;2023-02-18T09:51:14;1.10;;;1.10;;
703;SDS011;335;48.694;9.120;2023-02-18T09:53:40;0.80;;;0.80;;
703;SDS011;335;48.694;9.120;2023-02-18T09:56:09;0.80;;;0.80;;
703;SDS011;335;48.694;9.120;2023-02-18T09:58:39;1.03;;;1.03;;
703;SDS011;335;48.694;9.120;2023-02-18T10:01:10;1.03;;;1.03;;
703;SDS011;335;48.694;9.120;2023-02-18T10:03:40;0.93;;;0.93;;
703;SDS011;335;48.694;9.120;2023-02-18T10:06:24;0.93;;;0.93;;
703;SDS011;335;48.694;9.120;2023-02-18T10:08:51;3.80;;;1.07;;
703;SDS011;335;48.694;9.120;2023-02-18T10:11:21;0.93;;;0.93;;
703;SDS011;335;48.694;9.120;2023-02-18T10:13:49;0.80;;;0.80;;
703;SDS011;335;48.694;9.120;2023-02-18T10:16:16;2.93;;;2.00;;
703;SDS011;335;48.694;9.120;2023-02-18T10:18:47;1.13;;;1.03;;
703;SDS011;335;48.694;9.120;2023-02-18T10:21:14;1.53;;;1.13;;
703;SDS011;335;48.694;9.120;2023-02-18T10:23:45;3.97;;;0.83;;
703;SDS011;335;48.694;9.120;2023-02-18T10:26:32;2.33;;;1.27;;
703;SDS011;335;48.694;9.120;2023-02-18T10:28:59;0.77;;;0.77;;
703;SDS011;335;48.694;9.120;2023-02-18T10:31:27;3.43;;;0.97;;
703;SDS011;335;48.694;9.120;2023-02-18T10:34:06;0.97;;;0.93;;
703;SDS011;335;48.694;9.120;2023-02-18T10:36:46;1.50;;;1.00;;
703;SDS011;335;48.694;9.120;2023-02-18T10:39:31;4.30;;;1.17;;
703;SDS011;335;48.694;9.120;2023-02-18T10:47:32;1.73;;;1.00;;
703;SDS011;335;48.694;9.120;2023-02-18T10:52:42;1.20;;;1.10;;
703;SDS011;335;48.694;9.120;2023-02-18T10:55:09;0.90;;;0.80;;
703;SDS011;335;48.694;9.120;2023-02-18T10:57:57;0.73;;;0.73;;
703;SDS011;335;48.694;9.120;2023-02-18T11:00:26;1.83;;;0.90;;
703;SDS011;335;48.694;9.120;2023-02-18T11:05:47;2.30;;;0.77;;
703;SDS011;335;48.694;9.120;2023-02-18T11:08:21;1.20;;;1.10;;
703;SDS011;335;48.694;9.120;2023-02-18T11:10:48;0.77;;;0.60;;
703;SDS011;335;48.694;9.120;2023-02-18T11:13:15;0.63;;;0.63;;
703;SDS011;335;48.694;9.120;2023-02-18T11:16:01;1.37;;;0.80;;
703;SDS011;335;48.694;9.120;2023-02-18T11:18:38;0.67;;;0.67;;
703;SDS011;335;48.694;9.120;2023-02-18T11:23:49;3.60;;;0.70;;
703;SDS011;335;48.694;9.120;2023-02-18T11:26:16;2.30;;;1.00;;
703;SDS011;335;48.694;9.120;2023-02-18T11:28:44;2.40;;;1.10;;
703;SDS011;335;48.694;9.120;2023-02-18T11:31:15;2.00;;;0.97;;
703;SDS011;335;48.694;9.120;2023-02-18T11:33:43;1.27;;;0.77;;
703;SDS011;335;48.694;9.120;2023-02-18T11:36:17;0.83;;;0.83;;
703;SDS011;335;48.694;9.120;2023-02-18T11:38:49;0.73;;;0.60;;
703;SDS011;335;48.694;9.120;2023-02-18T11:41:17;2.40;;;1.07;;
703;SDS011;335;48.694;9.120;2023-02-18T11:43:46;1.10;;;0.50;;
703;SDS011;335;48.694;9.120;2023-02-18T11:46:17;1.33;;;0.67;;
703;SDS011;335;48.694;9.120;2023-02-18T11:48:44;1.00;;;0.90;;
703;SDS011;335;48.694;9.120;2023-02-18T11:51:27;0.93;;;0.60;;
703;SDS011;335;48.694;9.120;2023-02-18T11:54:04;1.10;;;0.80;;
703;SDS011;335;48.694;9.120;2023-02-18T11:56:53;1.07;;;0.47;;
703;SDS011;335;48.694;9.120;2023-02-18T11:59:39;0.70;;;0.70;;
703;SDS011;335;48.694;9.120;2023-02-18T12:04:41;0.80;;;0.80;;
703;SDS011;335;48.694;9.120;2023-02-18T12:07:29;2.30;;;1.13;;
703;SDS011;335;48.694;9.120;2023-02-18T12:10:00;3.23;;;2.30;;
703;SDS011;335;48.694;9.120;2023-02-18T12:12:30;1.27;;;0.60;;
703;SDS011;335;48.694;9.120;2023-02-18T12:14:57;1.63;;;0.90;;
703;SDS011;335;48.694;9.120;2023-02-18T12:36:57;1.60;;;1.10;;
703;SDS011;335;48.694;9.120;2023-02-18T12:39:43;1.23;;;1.10;;
703;SDS011;335;48.694;9.120;2023-02-18T12:42:16;5.33;;;0.87;;
703;SDS011;335;48.694;9.120;2023-02-18T12:50:36;0.80;;;0.80;;
703;SDS011;335;48.694;9.120;2023-02-18T12:53:12;1.30;;;1.20;;
703;SDS011;335;48.694;9.120;2023-02-18T12:58:33;1.17;;;1.17;;
703;SDS011;335;48.694;9.120;2023-02-18T13:01:09;1.23;;;1.13;;
703;SDS011;335;48.694;9.120;2023-02-18T13:06:52;1.77;;;0.97;;
703;SDS011;335;48.694;9.120;2023-02-18T13:09:54;1.47;;;1.17;;
703;SDS011;335;48.694;9.120;2023-02-18T13:12:37;1.17;;;1.00;;
703;SDS011;335;48.694;9.120;2023-02-18T13:15:17;2.97;;;1.60;;
703;SDS011;335;48.694;9.120;2023-02-18T13:17:44;1.50;;;1.40;;
703;SDS011;335;48.694;9.120;2023-02-18T13:20:24;5.37;;;1.67;;
703;SDS011;335;48.694;9.120;2023-02-18T13:22:56;1.90;;;1.80;;
703;SDS011;335;48.694;9.120;2023-02-18T13:25:21;2.87;;;1.53;;
703;SDS011;335;48.694;9.120;2023-02-18T13:27:49;1.73;;;1.63;;
703;SDS011;335;48.694;9.120;2023-02-18T13:31:09;1.10;;;1.10;;
703;SDS011;335;48.694;9.120;2023-02-18T13:36:04;1.30;;;1.27;;
703;SDS011;335;48.694;9.120;2023-02-18T13:38:53;1.93;;;1.07;;
703;SDS011;335;48.694;9.120;2023-02-18T13:41:44;1.47;;;1.33;;
703;SDS011;335;48.694;9.120;2023-02-18T13:46:54;1.43;;;1.40;;
703;SDS011;335;48.694;9.120;2023-02-18T13:49:21;1.60;;;1.33;;
703;SDS011;335;48.694;9.120;2023-02-18T13:51:49;1.10;;;1.00;;
703;SDS011;335;48.694;9.120;2023-02-18T13:54:23;1.77;;;1.50;;
703;SDS011;335;48.694;9.120;2023-02-18T13:56:56;2.07;;;1.97;;
703;SDS011;335;48.694;9.120;2023-02-18T13:59:30;1.77;;;1.77;;
703;SDS011;335;48.694;9.120;2023-02-18T14:07:25;1.53;;;1.43;;
703;SDS011;335;48.694;9.120;2023-02-18T14:10:04;1.40;;;1.30;;
703;SDS011;335;48.694;9.120;2023-02-18T14:17:47;1.53;;;1.43;;
703;SDS011;335;48.694;9.120;2023-02-18T14:20:26;1.23;;;1.20;;
703;SDS011;335;48.694;9.120;2023-02-18T14:22:53;1.97;;;1.20;;
703;SDS011;335;48.694;9.120;2023-02-18T14:31:00;6.00;;;1.73;;
703;SDS011;335;48.694;9.120;2023-02-18T14:33:31;1.70;;;1.60;;
703;SDS011;335;48.694;9.120;2023-02-18T14:39:00;1.77;;;1.30;;
703;SDS011;335;48.694;9.120;2023-02-18T14:47:09;2.10;;;1.53;;
703;SDS011;335;48.694;9.120;2023-02-18T14:49:51;1.50;;;1.40;;
703;SDS011;335;48.694;9.120;2023-02-18T14:52:21;1.67;;;1.57;;
703;SDS011;335;48.694;9.120;2023-02-18T14:54:53;6.87;;;2.10;;
703;SDS011;335;48.694;9.120;2023-02-18T14:57:18;1.87;;;1.77;;
703;SDS011;335;48.694;9.120;2023-02-18T14:59:50;1.90;;;1.43;;
703;SDS011;335;48.694;9.120;2023-02-18T15:02:24;1.60;;;1.50;;
703;SDS011;335;48.694;9.120;2023-02-18T15:05:04;1.50;;;1.20;;
703;SDS011;335;48.694;9.120;2023-02-18T15:07:35;1.37;;;1.27;;
703;SDS011;335;48.694;9.120;2023-02-18T15:10:01;1.40;;;1.33;;
703;SDS011;335;48.694;9.120;2023-02-18T15:12:26;1.23;;;1.07;;
703;SDS011;335;48.694;9.120;2023-02-18T15:14:52;4.80;;;1.80;;
703;SDS011;335;48.694;9.120;2023-02-18T15:17:22;1.10;;;1.10;;
703;SDS011;335;48.694;9.120;2023-02-18T15:19:52;1.60;;;1.60;;
703;SDS011;335;48.694;9.120;2023-02-18T15:22:20;1.57;;;1.47;;
703;SDS011;335;48.694;9.120;2023-02-18T15:24:48;1.60;;;1.40;;
703;SDS011;335;48.694;9.120;2023-02-18T15:27:15;1.07;;;1.07;;
703;SDS011;335;48.694;9.120;2023-02-18T15:29:42;1.40;;;1.30;;
703;SDS011;335;48.694;9.120;2023-02-18T15:32:20;1.37;;;1.37;;
703;SDS011;335;48.694;9.120;2023-02-18T15:34:49;1.13;;;1.13;;
703;SDS011;335;48.694;9.120;2023-02-18T15:37:16;1.40;;;1.30;;
703;SDS011;335;48.694;9.120;2023-02-18T15:39:41;1.33;;;1.23;;
703;SDS011;335;48.694;9.120;2023-02-18T15:42:16;1.60;;;1.50;;
703;SDS011;335;48.694;9.120;2023-02-18T15:44:48;2.90;;;1.10;;
703;SDS011;335;48.694;9.120;2023-02-18T15:47:14;1.47;;;1.30;;
703;SDS011;335;48.694;9.120;2023-02-18T15:49:44;1.40;;;1.40;;
703;SDS011;335;48.694;9.120;2023-02-18T15:52:11;1.20;;;1.20;;
703;SDS011;335;48.694;9.120;2023-02-18T15:54:38;2.83;;;1.50;;
703;SDS011;335;48.694;9.120;2023-02-18T15:57:05;1.47;;;1.37;;
703;SDS011;335;48.694;9.120;2023-02-18T15:59:34;1.50;;;1.40;;
703;SDS011;335;48.694;9.120;2023-02-18T16:02:10;1.57;;;1.47;;
703;SDS011;335;48.694;9.120;2023-02-18T16:04:45;1.70;;;1.60;;
703;SDS011;335;48.694;9.120;2023-02-18T16:07:19;1.47;;;1.37;;
703;SDS011;335;48.694;9.120;2023-02-18T16:09:46;1.23;;;1.23;;
703;SDS011;335;48.694;9.120;2023-02-18T16:12:16;2.20;;;2.10;;
703;SDS011;335;48.694;9.120;2023-02-18T16:14:47;1.60;;;1.50;;
703;SDS011;335;48.694;9.120;2023-02-18T16:19:46;1.80;;;1.70;;
703;SDS011;335;48.694;9.120;2023-02-18T16:22:21;2.10;;;1.30;;
703;SDS011;335;48.694;9.120;2023-02-18T16:24:47;1.60;;;1.50;;
703;SDS011;335;48.694;9.120;2023-02-18T16:27:15;1.67;;;1.57;;
703;SDS011;335;48.694;9.120;2023-02-18T16:29:41;1.80;;;1.70;;
703;SDS011;335;48.694;9.120;2023-02-18T16:32:08;2.00;;;1.80;;
703;SDS011;335;48.694;9.120;2023-02-18T16:34:33;1.70;;;1.60;;
703;SDS011;335;48.694;9.120;2023-02-18T16:36:59;1.90;;;1.80;;
703;SDS011;335;48.694;9.120;2023-02-18T16:39:44;1.50;;;1.40;;
703;SDS011;335;48.694;9.120;2023-02-18T16:42:09;1.93;;;1.70;;
703;SDS011;335;48.694;9.120;2023-02-18T16:44:36;4.20;;;1.63;;
703;SDS011;335;48.694;9.120;2023-02-18T16:47:02;1.50;;;1.40;;
703;SDS011;335;48.694;9.120;2023-02-18T16:49:27;1.33;;;1.20;;
703;SDS011;335;48.694;9.120;2023-02-18T16:51:53;1.20;;;1.10;;
703;SDS011;335;48.694;9.120;2023-02-18T16:54:18;1.60;;;1.50;;
703;SDS011;335;48.694;9.120;2023-02-18T16:56:43;2.00;;;1.90;;
703;SDS011;335;48.694;9.120;2023-02-18T16:59:09;1.60;;;1.50;;
703;SDS011;335;48.694;9.120;2023-02-18T17:01:35;2.03;;;1.90;;
703;SDS011;335;48.694;9.120;2023-02-18T17:04:03;1.50;;;1.40;;
703;SDS011;335;48.694;9.120;2023-02-18T17:06:29;2.50;;;1.83;;
703;SDS011;335;48.694;9.120;2023-02-18T17:08:56;1.93;;;1.50;;
703;SDS011;335;48.694;9.120;2023-02-18T17:11:22;1.87;;;1.70;;
703;SDS011;335;48.694;9.120;2023-02-18T17:13:50;1.93;;;1.83;;
703;SDS011;335;48.694;9.120;2023-02-18T17:16:16;1.60;;;1.50;;
703;SDS011;335;48.694;9.120;2023-02-18T17:18:41;1.90;;;1.73;;
703;SDS011;335;48.694;9.120;2023-02-18T17:21:10;1.77;;;1.67;;
703;SDS011;335;48.694;9.120;2023-02-18T17:23:37;2.00;;;1.90;;
703;SDS011;335;48.694;9.120;2023-02-18T17:26:04;1.90;;;1.70;;
703;SDS011;335;48.694;9.120;2023-02-18T17:28:29;4.30;;;2.33;;
703;SDS011;335;48.694;9.120;2023-02-18T17:30:55;3.20;;;2.13;;
703;SDS011;335;48.694;9.120;2023-02-18T17:33:21;1.90;;;1.80;;
703;SDS011;335;48.694;9.120;2023-02-18T17:35:47;1.90;;;1.80;;
703;SDS011;335;48.694;9.120;2023-02-18T17:38:13;1.93;;;1.80;;
703;SDS011;335;48.694;9.120;2023-02-18T17:40:40;2.10;;;1.90;;
703;SDS011;335;48.694;9.120;2023-02-18T17:43:05;2.40;;;1.83;;